Time;durP1;ratioP1;P1;durP2;ratioP2;P2;SDS_P1;SDS_P2;PMS_P1;PMS_P2;Temp;Humidity;BMP_temperature;BMP_pressure;BME280_temperature;BME280_humidity;BME280_pressure;Samples;Min_cycle;Max_cycle;Signal;HPM_P1;HPM_P2
2022/12/02 00:00:49;;;;;;;40.40;13.98;;;6.00;77.00;;;;;;5087726;28;20056;-70
2022/12/02 00:03:19;;;;;;;35.28;12.93;;;6.00;77.00;;;;;;5069313;28;20514;-70
2022/12/02 00:05:50;;;;;;;32.13;12.20;;;6.00;76.90;;;;;;5069781;28;20056;-70
2022/12/02 00:08:21;;;;;;;33.80;12.43;;;6.00;77.00;;;;;;5085056;28;20387;-70
2022/12/02 00:10:50;;;;;;;37.88;13.80;;;6.00;76.80;;;;;;5068972;28;20081;-70
2022/12/02 00:13:23;;;;;;;40.00;14.25;;;6.00;76.80;;;;;;5083535;28;20072;-70
2022/12/02 00:15:53;;;;;;;37.85;13.85;;;6.00;76.80;;;;;;5085110;28;20136;-70
2022/12/02 00:18:20;;;;;;;34.87;12.40;;;6.00;76.70;;;;;;5069230;28;20224;-70
2022/12/02 00:20:47;;;;;;;32.67;12.63;;;6.00;76.70;;;;;;5069552;28;20256;-70
2022/12/02 00:23:16;;;;;;;39.17;13.93;;;6.00;76.50;;;;;;5068943;28;20045;-69
2022/12/02 00:25:46;;;;;;;36.70;13.68;;;5.90;76.40;;;;;;5051062;28;20118;-70
2022/12/02 00:28:14;;;;;;;36.70;13.63;;;5.90;76.70;;;;;;5069316;28;20053;-69
2022/12/02 00:30:41;;;;;;;34.47;12.67;;;5.90;76.80;;;;;;5050067;28;20072;-70
2022/12/02 00:33:08;;;;;;;33.47;13.48;;;5.90;76.90;;;;;;5084694;28;20256;-70
2022/12/02 00:35:36;;;;;;;37.67;13.90;;;6.00;77.00;;;;;;5093095;28;20591;-70
2022/12/02 00:38:04;;;;;;;37.33;13.90;;;5.90;76.90;;;;;;5069286;28;20160;-70
2022/12/02 00:40:32;;;;;;;36.45;13.18;;;6.00;77.00;;;;;;5069006;28;20081;-70
2022/12/02 00:48:26;;;;;;;36.53;13.07;;;5.90;76.80;;;;;;5068277;28;20098;-70
2022/12/02 00:50:54;;;;;;;34.83;13.13;;;5.90;77.00;;;;;;5105073;28;20053;-70
2022/12/02 00:53:23;;;;;;;37.45;12.85;;;5.90;76.70;;;;;;5087898;28;20049;-70
2022/12/02 00:55:51;;;;;;;33.53;13.47;;;5.90;76.60;;;;;;5068813;28;20493;-70
2022/12/02 00:58:19;;;;;;;36.35;13.32;;;5.90;76.60;;;;;;5087381;28;20382;-69
2022/12/02 01:00:47;;;;;;;37.17;13.45;;;5.90;76.70;;;;;;5068213;28;20052;-69
2022/12/02 01:03:14;;;;;;;38.75;13.10;;;5.90;76.70;;;;;;5087609;28;20132;-70
2022/12/02 01:05:42;;;;;;;37.92;13.95;;;5.90;76.80;;;;;;5085877;28;20049;-70
2022/12/02 01:08:09;;;;;;;37.47;13.53;;;5.90;77.10;;;;;;5056748;28;20055;-70
2022/12/02 01:10:36;;;;;;;37.90;14.45;;;5.90;77.20;;;;;;5070896;28;20777;-70
2022/12/02 01:13:04;;;;;;;33.78;12.27;;;5.90;76.80;;;;;;5087631;28;20049;-70
2022/12/02 01:15:32;;;;;;;41.13;14.45;;;5.90;76.80;;;;;;5085057;28;20048;-70
2022/12/02 01:18:00;;;;;;;40.90;14.25;;;5.90;76.30;;;;;;5090901;28;20056;-70
2022/12/02 01:20:27;;;;;;;34.40;13.17;;;5.80;76.10;;;;;;5034483;28;20053;-70
2022/12/02 01:22:54;;;;;;;36.15;13.68;;;5.80;76.10;;;;;;5050471;28;20249;-70
2022/12/02 01:25:22;;;;;;;34.00;12.43;;;5.80;76.60;;;;;;5033205;28;20160;-70
2022/12/02 01:27:49;;;;;;;35.83;13.57;;;5.70;76.50;;;;;;5052065;28;20077;-70
2022/12/02 01:30:17;;;;;;;34.67;13.95;;;5.70;76.00;;;;;;5053374;28;20604;-70
2022/12/02 01:32:44;;;;;;;32.83;12.87;;;5.70;76.20;;;;;;5072132;28;20136;-70
2022/12/02 01:35:11;;;;;;;37.70;12.88;;;5.70;76.60;;;;;;5058291;28;20363;-70
2022/12/02 01:37:38;;;;;;;32.08;12.50;;;5.70;76.80;;;;;;5053672;28;20053;-70
2022/12/02 01:40:10;;;;;;;31.52;12.05;;;5.70;76.50;;;;;;5056104;28;20260;-70
2022/12/02 01:42:38;;;;;;;32.83;12.25;;;5.70;76.40;;;;;;5051947;28;20114;-69
2022/12/02 01:45:07;;;;;;;32.13;11.80;;;5.60;76.10;;;;;;5056597;28;20056;-70
2022/12/02 01:47:36;;;;;;;31.50;12.55;;;5.60;76.40;;;;;;5053239;28;21227;-70
2022/12/02 01:50:04;;;;;;;37.45;12.93;;;5.60;76.40;;;;;;5052956;28;20156;-70
2022/12/02 01:52:31;;;;;;;32.28;12.93;;;5.60;76.40;;;;;;5069741;28;20983;-69
2022/12/02 01:54:59;;;;;;;32.40;12.45;;;5.60;76.30;;;;;;5053436;28;20146;-69
2022/12/02 01:57:28;;;;;;;36.10;12.13;;;5.60;76.30;;;;;;5070248;28;20135;-70
2022/12/02 01:59:56;;;;;;;33.00;11.98;;;5.60;76.10;;;;;;5085415;28;21010;-70
2022/12/02 02:02:25;;;;;;;30.50;12.15;;;5.50;76.00;;;;;;5091784;28;20057;-69
2022/12/02 02:04:57;;;;;;;35.75;12.85;;;5.50;76.00;;;;;;5041275;28;20052;-70
2022/12/02 02:07:24;;;;;;;30.25;12.07;;;5.50;76.30;;;;;;5070258;28;20049;-70
2022/12/02 02:09:52;;;;;;;30.37;11.53;;;5.50;76.30;;;;;;5036264;28;20184;-69
2022/12/02 02:12:19;;;;;;;28.48;10.32;;;5.50;76.30;;;;;;5086315;28;20363;-70
2022/12/02 02:14:46;;;;;;;31.08;11.40;;;5.50;76.60;;;;;;5069770;28;20053;-69
2022/12/02 02:17:13;;;;;;;28.88;10.73;;;5.50;76.50;;;;;;5070538;28;20132;-70
2022/12/02 02:19:40;;;;;;;26.60;10.80;;;5.50;76.20;;;;;;5086574;28;20148;-70
2022/12/02 02:22:17;;;;;;;26.17;9.73;;;5.50;76.20;;;;;;5086503;28;20049;-69
2022/12/02 02:24:45;;;;;;;24.80;9.30;;;5.50;76.40;;;;;;5086673;28;20296;-70
2022/12/02 02:27:12;;;;;;;24.70;9.43;;;5.50;76.50;;;;;;5036314;28;20106;-70
2022/12/02 02:29:42;;;;;;;21.65;8.40;;;5.50;76.40;;;;;;5036130;28;20056;-69
2022/12/02 02:32:09;;;;;;;21.27;8.18;;;5.50;76.20;;;;;;5086329;28;20049;-70
2022/12/02 02:34:37;;;;;;;23.87;8.80;;;5.50;75.90;;;;;;5079804;28;20123;-70
2022/12/02 02:37:04;;;;;;;26.05;9.93;;;5.50;75.90;;;;;;5071077;28;20306;-70
2022/12/02 02:39:32;;;;;;;26.02;9.15;;;5.50;75.70;;;;;;5058288;28;20049;-69
2022/12/02 02:42:01;;;;;;;23.92;9.45;;;5.50;75.30;;;;;;5082127;28;20051;-69
2022/12/02 02:44:29;;;;;;;24.13;8.95;;;5.50;75.70;;;;;;5059652;28;20495;-69
2022/12/02 02:46:58;;;;;;;23.13;9.30;;;5.40;75.20;;;;;;5069245;28;20055;-69
2022/12/02 02:49:25;;;;;;;26.27;10.57;;;5.30;75.80;;;;;;5068595;28;20369;-70
2022/12/02 02:51:52;;;;;;;24.40;9.30;;;5.30;76.30;;;;;;5065099;28;20133;-70
2022/12/02 02:54:20;;;;;;;24.58;9.40;;;5.30;76.20;;;;;;5030492;28;20420;-70
2022/12/02 02:56:47;;;;;;;24.90;9.75;;;5.30;76.40;;;;;;5050673;28;20128;-70
2022/12/02 02:59:16;;;;;;;24.03;9.87;;;5.30;76.00;;;;;;5084234;28;20184;-70
2022/12/02 03:01:48;;;;;;;20.85;9.18;;;5.30;76.00;;;;;;5050829;28;20292;-70
2022/12/02 03:04:17;;;;;;;25.73;9.80;;;5.30;75.90;;;;;;5084483;28;20049;-70
2022/12/02 03:06:46;;;;;;;23.67;9.23;;;5.30;75.80;;;;;;5034379;28;20139;-70
2022/12/02 03:09:17;;;;;;;22.65;8.90;;;5.30;75.90;;;;;;5082056;28;20096;-70
2022/12/02 03:11:47;;;;;;;23.10;9.07;;;5.30;76.40;;;;;;5035612;28;20103;-70
2022/12/02 03:14:17;;;;;;;23.02;8.60;;;5.30;75.90;;;;;;5085772;28;20351;-70
2022/12/02 03:16:44;;;;;;;22.58;8.82;;;5.30;75.80;;;;;;5051963;28;20049;-70
2022/12/02 03:19:11;;;;;;;20.25;8.57;;;5.30;75.90;;;;;;5085387;28;20136;-70
2022/12/02 03:21:39;;;;;;;22.85;8.98;;;5.30;75.50;;;;;;5085005;28;21062;-70
2022/12/02 03:24:07;;;;;;;21.37;7.97;;;5.30;75.40;;;;;;5068990;28;20049;-70
2022/12/02 03:26:34;;;;;;;24.05;8.73;;;5.30;75.50;;;;;;5060877;28;20248;-70
2022/12/02 03:29:03;;;;;;;21.38;8.63;;;5.30;75.50;;;;;;5071985;28;20170;-70
2022/12/02 03:31:33;;;;;;;20.50;8.60;;;5.30;75.50;;;;;;5106157;28;20461;-70
2022/12/02 03:34:00;;;;;;;19.23;7.57;;;5.30;75.40;;;;;;5070203;28;20080;-70
2022/12/02 03:36:28;;;;;;;21.20;8.33;;;5.20;75.50;;;;;;5061899;28;20055;-70
2022/12/02 03:38:55;;;;;;;20.63;8.27;;;5.20;75.70;;;;;;5069831;28;20286;-69
2022/12/02 03:41:24;;;;;;;20.65;8.48;;;5.20;75.70;;;;;;5085594;28;20049;-69
2022/12/02 03:43:53;;;;;;;23.33;8.50;;;5.30;75.50;;;;;;5077171;28;20150;-69
2022/12/02 03:46:20;;;;;;;19.52;7.53;;;5.30;75.40;;;;;;5064387;28;20128;-70
2022/12/02 03:48:49;;;;;;;22.37;7.90;;;5.30;75.70;;;;;;5085251;28;20056;-69
2022/12/02 03:51:17;;;;;;;20.38;7.85;;;5.30;75.70;;;;;;5069492;28;20586;-70
2022/12/02 03:53:47;;;;;;;20.13;7.38;;;5.30;75.80;;;;;;5051590;28;20041;-70
2022/12/02 03:56:14;;;;;;;19.08;7.07;;;5.30;75.60;;;;;;5070119;28;20049;-70
2022/12/02 03:58:46;;;;;;;21.95;7.90;;;5.30;75.40;;;;;;5069967;28;20057;-69
2022/12/02 04:01:14;;;;;;;24.27;8.23;;;5.30;75.50;;;;;;5081665;28;20148;-70
2022/12/02 04:03:42;;;;;;;22.17;8.52;;;5.30;75.50;;;;;;5048201;28;20269;-69
2022/12/02 04:06:11;;;;;;;22.25;7.97;;;5.30;75.70;;;;;;5051436;28;20044;-70
2022/12/02 04:08:38;;;;;;;21.45;8.10;;;5.30;75.50;;;;;;5084961;28;20063;-70
2022/12/02 04:11:05;;;;;;;24.08;10.18;;;5.30;75.50;;;;;;5051234;28;20052;-70
2022/12/02 04:13:32;;;;;;;22.93;8.37;;;5.30;75.50;;;;;;5051374;28;20060;-70
2022/12/02 04:15:59;;;;;;;22.83;9.15;;;5.30;75.60;;;;;;5068396;28;20279;-70
2022/12/02 04:18:27;;;;;;;25.05;8.73;;;5.30;75.70;;;;;;5063239;28;20049;-70
2022/12/02 04:20:54;;;;;;;25.00;8.88;;;5.30;75.80;;;;;;5054869;28;20057;-69
2022/12/02 04:23:22;;;;;;;24.60;9.60;;;5.30;75.50;;;;;;5084815;28;20521;-69
2022/12/02 04:25:49;;;;;;;26.63;8.90;;;5.30;75.30;;;;;;5084734;28;20053;-69
2022/12/02 04:28:16;;;;;;;23.67;8.73;;;5.20;75.30;;;;;;5051334;28;20269;-70
2022/12/02 04:30:43;;;;;;;23.70;9.48;;;5.20;75.40;;;;;;5068967;28;20104;-69
2022/12/02 04:33:10;;;;;;;24.73;9.18;;;5.20;75.50;;;;;;5069308;28;20055;-69
2022/12/02 04:35:37;;;;;;;24.60;9.05;;;5.20;75.60;;;;;;5073783;28;20809;-69
2022/12/02 04:38:05;;;;;;;26.77;9.80;;;5.20;75.70;;;;;;5108925;28;20040;-69
2022/12/02 04:40:46;;;;;;;27.85;9.63;;;5.20;75.70;;;;;;5079630;28;20251;-70
2022/12/02 04:43:13;;;;;;;23.80;9.02;;;5.20;75.80;;;;;;5058078;28;20052;-70
2022/12/02 04:45:40;;;;;;;25.88;10.00;;;5.20;75.70;;;;;;5065659;28;20053;-69
2022/12/02 04:48:07;;;;;;;29.17;9.85;;;5.20;75.80;;;;;;5051996;28;20061;-69
2022/12/02 04:50:35;;;;;;;28.40;10.07;;;5.30;75.90;;;;;;5054191;28;20068;-70
2022/12/02 04:53:02;;;;;;;25.05;9.82;;;5.30;75.80;;;;;;5055101;28;20315;-70
2022/12/02 04:55:29;;;;;;;27.27;10.07;;;5.30;75.70;;;;;;5108874;28;20076;-69
2022/12/02 04:57:57;;;;;;;26.30;9.95;;;5.30;75.80;;;;;;5071785;28;20132;-69
2022/12/02 05:00:25;;;;;;;26.92;10.00;;;5.30;75.90;;;;;;5070536;28;20573;-70
2022/12/02 05:02:52;;;;;;;29.37;10.07;;;5.30;75.70;;;;;;5087969;28;20049;-69
2022/12/02 05:05:19;;;;;;;28.02;10.38;;;5.20;75.70;;;;;;5087951;28;20248;-69
2022/12/02 05:07:46;;;;;;;27.48;10.82;;;5.20;75.60;;;;;;5087640;28;20051;-69
2022/12/02 05:10:13;;;;;;;25.20;9.50;;;5.20;75.60;;;;;;5087329;28;20041;-69
2022/12/02 05:12:40;;;;;;;28.02;9.73;;;5.10;75.50;;;;;;5034133;28;20046;-70
2022/12/02 05:15:10;;;;;;;27.23;10.00;;;5.10;75.60;;;;;;5071831;28;20191;-69
2022/12/02 05:17:37;;;;;;;28.00;10.23;;;5.10;75.50;;;;;;5072053;28;20299;-69
2022/12/02 05:20:05;;;;;;;29.73;10.82;;;5.10;75.70;;;;;;5105181;28;20403;-69
2022/12/02 05:22:32;;;;;;;29.05;10.82;;;5.10;75.70;;;;;;5091664;28;20052;-70
2022/12/02 05:24:59;;;;;;;28.45;9.77;;;5.10;75.70;;;;;;5069582;28;20045;-69
2022/12/02 05:27:27;;;;;;;29.43;10.30;;;5.10;75.80;;;;;;5051854;28;20141;-70
2022/12/02 05:29:55;;;;;;;28.52;10.32;;;5.10;75.90;;;;;;5069980;28;20255;-70
2022/12/02 05:32:23;;;;;;;26.88;9.80;;;5.10;75.80;;;;;;5107854;28;20474;-70
2022/12/02 05:34:50;;;;;;;28.90;10.75;;;5.00;75.70;;;;;;5074024;28;20075;-70
2022/12/02 05:37:18;;;;;;;31.60;10.88;;;5.10;75.80;;;;;;5087643;28;20041;-70
2022/12/02 05:39:45;;;;;;;29.77;10.50;;;5.00;75.70;;;;;;5070451;28;20060;-70
2022/12/02 05:42:14;;;;;;;35.15;12.23;;;5.00;75.90;;;;;;5071702;28;20303;-70
2022/12/02 05:44:42;;;;;;;34.75;11.68;;;5.00;75.80;;;;;;5071494;28;20565;-70
2022/12/02 05:47:12;;;;;;;31.80;11.13;;;5.00;75.80;;;;;;5099790;27;20482;-70
2022/12/02 05:49:41;;;;;;;32.17;11.40;;;5.00;75.70;;;;;;5088172;28;20053;-70
2022/12/02 05:52:19;;;;;;;30.40;11.43;;;5.00;75.50;;;;;;5049884;28;20063;-70
2022/12/02 05:54:48;;;;;;;33.63;11.60;;;5.00;75.70;;;;;;5059245;28;20664;-70
2022/12/02 05:57:16;;;;;;;31.77;10.43;;;5.00;75.80;;;;;;5107690;28;20154;-70
2022/12/02 05:59:43;;;;;;;32.17;11.75;;;5.00;75.60;;;;;;5075603;28;20084;-70
2022/12/02 06:02:23;;;;;;;32.13;11.40;;;5.00;75.60;;;;;;5087075;28;21047;-70
2022/12/02 06:04:52;;;;;;;32.67;10.80;;;5.00;75.50;;;;;;5103998;28;20577;-70
2022/12/02 06:07:19;;;;;;;33.80;11.35;;;5.00;75.50;;;;;;5092005;28;20262;-70
2022/12/02 06:09:46;;;;;;;35.50;11.95;;;4.90;75.70;;;;;;5072043;28;20136;-70
2022/12/02 06:12:17;;;;;;;35.35;12.40;;;5.00;75.80;;;;;;5086365;28;20041;-70
2022/12/02 06:14:47;;;;;;;33.10;11.52;;;5.00;75.90;;;;;;5071140;28;20056;-70
2022/12/02 06:17:16;;;;;;;35.93;12.53;;;5.00;75.70;;;;;;5071169;28;20787;-70
2022/12/02 06:19:45;;;;;;;39.28;12.35;;;5.00;75.90;;;;;;5070770;28;20310;-70
2022/12/02 06:22:19;;;;;;;35.80;12.45;;;5.00;75.90;;;;;;5068987;28;20049;-70
2022/12/02 06:24:46;;;;;;;39.13;12.75;;;5.00;75.90;;;;;;5086437;28;20095;-70
2022/12/02 06:27:15;;;;;;;35.85;12.20;;;5.00;76.00;;;;;;5086686;28;20471;-70
2022/12/02 06:29:47;;;;;;;36.53;12.27;;;5.00;76.00;;;;;;5086225;28;20116;-70
2022/12/02 06:32:18;;;;;;;37.05;12.90;;;5.00;75.70;;;;;;5070610;28;20287;-70
2022/12/02 06:34:48;;;;;;;35.53;12.38;;;5.00;75.90;;;;;;5054128;28;20049;-70
2022/12/02 06:37:19;;;;;;;38.83;12.65;;;5.00;75.80;;;;;;5093830;28;20053;-70
2022/12/02 06:39:49;;;;;;;38.00;12.90;;;5.00;76.10;;;;;;5088299;28;20522;-70
2022/12/02 06:42:21;;;;;;;35.60;13.27;;;5.00;75.90;;;;;;5083256;28;20095;-70
2022/12/02 06:45:07;;;;;;;32.80;12.55;;;4.90;75.80;;;;;;5068072;28;20252;-70
2022/12/02 06:47:48;;;;;;;34.30;12.18;;;4.90;75.80;;;;;;5068353;28;20060;-70
2022/12/02 06:50:25;;;;;;;40.55;12.80;;;4.90;75.80;;;;;;5049758;28;20045;-70
2022/12/02 06:52:59;;;;;;;40.30;13.55;;;4.90;75.90;;;;;;5050202;28;20045;-70
2022/12/02 06:55:31;;;;;;;34.80;12.17;;;4.90;76.00;;;;;;5048663;28;20057;-70
2022/12/02 06:58:10;;;;;;;37.10;12.45;;;4.90;76.00;;;;;;5063334;28;20987;-70
2022/12/02 07:00:38;;;;;;;41.53;13.60;;;4.90;76.00;;;;;;5049740;28;20065;-71
2022/12/02 07:03:07;;;;;;;39.65;13.32;;;4.90;75.90;;;;;;5068141;28;20076;-70
2022/12/02 07:05:34;;;;;;;40.42;13.90;;;4.90;75.70;;;;;;5033207;28;20137;-70
2022/12/02 07:08:04;;;;;;;36.33;13.73;;;4.90;75.80;;;;;;5050409;28;20059;-70
2022/12/02 07:10:32;;;;;;;35.83;12.15;;;4.80;75.70;;;;;;5068982;28;20260;-70
2022/12/02 07:13:03;;;;;;;35.55;12.90;;;4.80;75.90;;;;;;5050494;28;20140;-70
2022/12/02 07:15:32;;;;;;;39.13;14.02;;;4.80;76.20;;;;;;5067391;28;20057;-70
2022/12/02 07:18:09;;;;;;;39.85;13.65;;;4.80;76.20;;;;;;5066497;28;20124;-70
2022/12/02 07:20:39;;;;;;;40.50;13.77;;;4.80;76.10;;;;;;5050590;28;20600;-70
2022/12/02 07:23:15;;;;;;;38.13;13.00;;;4.80;75.90;;;;;;5050500;28;20776;-70
2022/12/02 07:25:44;;;;;;;38.00;13.32;;;4.80;76.00;;;;;;5068438;28;20140;-70
2022/12/02 07:28:22;;;;;;;41.53;14.05;;;4.70;76.00;;;;;;5069316;28;20128;-70
2022/12/02 07:31:01;;;;;;;42.47;13.55;;;4.70;76.20;;;;;;5085142;28;20861;-70
2022/12/02 07:33:28;;;;;;;41.87;12.97;;;4.70;76.20;;;;;;5080763;28;20142;-70
2022/12/02 07:35:56;;;;;;;41.88;12.60;;;4.70;76.20;;;;;;5067167;28;20290;-70
2022/12/02 07:38:24;;;;;;;45.00;14.23;;;4.70;76.20;;;;;;5067978;28;20677;-70
2022/12/02 07:40:51;;;;;;;42.03;13.80;;;4.70;76.10;;;;;;5067571;28;20083;-70
2022/12/02 07:43:18;;;;;;;38.38;13.07;;;4.70;76.20;;;;;;5049699;28;20049;-70
2022/12/02 07:45:45;;;;;;;44.40;13.83;;;4.70;76.20;;;;;;5068033;28;20916;-70
2022/12/02 07:48:13;;;;;;;47.15;14.30;;;4.70;76.40;;;;;;5083133;28;20268;-70
2022/12/02 07:50:40;;;;;;;44.83;14.32;;;4.70;76.10;;;;;;5066518;28;20053;-70
2022/12/02 07:53:07;;;;;;;45.25;14.18;;;4.70;76.50;;;;;;5074401;28;20052;-70
2022/12/02 07:55:36;;;;;;;44.33;15.27;;;4.70;76.20;;;;;;5087071;28;20052;-70
2022/12/02 07:58:03;;;;;;;46.47;14.33;;;4.60;76.20;;;;;;5076636;28;20048;-70
2022/12/02 08:00:30;;;;;;;42.97;14.15;;;4.60;76.20;;;;;;5068335;28;20277;-70
2022/12/02 08:02:58;;;;;;;42.22;15.30;;;4.50;76.30;;;;;;5082360;28;20688;-70
2022/12/02 08:06:16;;;;;;;42.05;13.77;;;4.50;76.20;;;;;;5054184;28;20056;-70
2022/12/02 08:08:44;;;;;;;39.97;13.35;;;4.50;76.20;;;;;;5088010;28;20045;-70
2022/12/02 08:11:12;;;;;;;43.80;14.43;;;4.40;76.40;;;;;;5040357;28;20075;-70
2022/12/02 08:13:39;;;;;;;39.33;13.98;;;4.40;76.30;;;;;;5081070;28;20292;-70
2022/12/02 08:16:07;;;;;;;39.88;13.32;;;4.30;76.70;;;;;;5077298;28;20056;-70
2022/12/02 08:18:34;;;;;;;41.85;13.13;;;4.40;76.80;;;;;;5071573;28;20448;-70
2022/12/02 08:21:01;;;;;;;39.75;13.07;;;4.40;76.90;;;;;;5059997;28;20143;-70
2022/12/02 08:23:29;;;;;;;39.83;12.93;;;4.40;76.70;;;;;;5082527;28;20057;-71
2022/12/02 08:25:56;;;;;;;43.38;14.23;;;4.40;76.90;;;;;;5083263;28;20314;-70
2022/12/02 08:28:25;;;;;;;50.67;20.02;;;4.40;77.20;;;;;;5067807;28;20057;-69
2022/12/02 08:30:53;;;;;;;40.60;13.35;;;4.40;76.80;;;;;;5066938;28;20156;-70
2022/12/02 08:33:21;;;;;;;42.88;12.32;;;4.40;77.00;;;;;;5067499;28;20049;-70
2022/12/02 08:35:48;;;;;;;38.67;12.40;;;4.40;76.60;;;;;;5089138;28;20140;-70
2022/12/02 08:38:15;;;;;;;35.60;11.88;;;4.40;76.60;;;;;;5067975;28;20680;-71
2022/12/02 08:40:42;;;;;;;39.80;13.27;;;4.40;76.60;;;;;;5068855;28;20136;-70
2022/12/02 08:43:09;;;;;;;39.70;13.60;;;4.30;76.60;;;;;;5068983;28;20490;-70
2022/12/02 08:45:38;;;;;;;39.33;12.32;;;4.30;76.50;;;;;;5084658;28;20049;-70
2022/12/02 08:48:05;;;;;;;34.70;11.40;;;4.30;76.80;;;;;;5084115;28;20076;-70
2022/12/02 08:50:32;;;;;;;35.72;11.00;;;4.30;76.70;;;;;;5050183;28;20276;-70
2022/12/02 08:53:01;;;;;;;41.00;12.15;;;4.30;76.60;;;;;;5084102;28;20576;-70
2022/12/02 08:55:28;;;;;;;36.63;12.35;;;4.20;76.50;;;;;;5083737;28;20057;-70
2022/12/02 08:57:55;;;;;;;42.92;14.13;;;4.20;76.80;;;;;;5050762;28;20602;-70
2022/12/02 09:00:23;;;;;;;42.77;13.07;;;4.20;76.90;;;;;;5081774;28;20096;-70
2022/12/02 09:02:53;;;;;;;37.85;13.07;;;4.10;76.80;;;;;;5068677;28;20378;-69
2022/12/02 09:05:20;;;;;;;40.35;13.15;;;4.10;76.70;;;;;;5102988;28;20102;-70
2022/12/02 09:07:47;;;;;;;46.30;14.95;;;4.10;76.90;;;;;;5087516;28;20544;-70
2022/12/02 09:10:15;;;;;;;48.75;14.85;;;4.10;76.90;;;;;;5068423;28;20102;-70
2022/12/02 09:12:43;;;;;;;43.60;13.40;;;4.10;77.10;;;;;;5082555;28;20408;-71
2022/12/02 09:15:11;;;;;;;42.45;13.40;;;4.10;77.50;;;;;;5068669;28;20271;-70
2022/12/02 09:17:38;;;;;;;38.80;12.13;;;4.10;77.40;;;;;;5083907;28;20061;-71
2022/12/02 09:20:07;;;;;;;38.03;12.10;;;4.10;77.20;;;;;;5082957;28;20142;-70
2022/12/02 09:22:34;;;;;;;40.38;12.02;;;4.00;77.20;;;;;;5086549;28;20064;-70
2022/12/02 09:25:01;;;;;;;40.97;12.90;;;4.00;77.40;;;;;;5072160;28;20040;-70
2022/12/02 09:27:29;;;;;;;44.75;13.95;;;4.00;77.40;;;;;;5056621;28;20646;-70
2022/12/02 09:29:56;;;;;;;45.90;14.10;;;4.00;78.00;;;;;;5070410;28;20087;-71
2022/12/02 09:32:23;;;;;;;47.33;12.57;;;4.00;78.00;;;;;;5082395;28;20049;-70
2022/12/02 09:34:50;;;;;;;47.15;14.27;;;4.00;78.20;;;;;;5064437;28;20135;-70
2022/12/02 09:37:19;;;;;;;41.87;12.83;;;4.10;78.10;;;;;;5075174;28;20984;-70
2022/12/02 09:39:47;;;;;;;41.17;12.93;;;4.10;77.80;;;;;;5073361;28;20255;-70
2022/12/02 09:42:15;;;;;;;41.78;13.65;;;4.10;77.70;;;;;;5066439;28;20138;-71
2022/12/02 09:44:44;;;;;;;36.88;13.10;;;4.10;77.90;;;;;;5087819;28;20134;-70
2022/12/02 09:47:12;;;;;;;37.00;12.65;;;4.10;78.10;;;;;;5081555;28;20059;-70
2022/12/02 09:49:40;;;;;;;41.27;12.33;;;4.10;78.20;;;;;;5071156;28;20122;-70
2022/12/02 09:52:14;;;;;;;37.72;13.57;;;4.10;78.00;;;;;;5051606;28;20296;-70
2022/12/02 09:54:42;;;;;;;35.63;12.70;;;4.10;77.90;;;;;;5072915;28;20052;-70
2022/12/02 09:57:11;;;;;;;39.72;12.30;;;4.10;77.70;;;;;;5079491;28;20061;-70
2022/12/02 09:59:38;;;;;;;37.75;12.57;;;4.10;77.60;;;;;;5061552;28;20044;-70
2022/12/02 10:02:22;;;;;;;40.43;12.87;;;4.10;77.80;;;;;;5076261;28;20160;-70
2022/12/02 10:04:49;;;;;;;38.42;11.65;;;4.10;77.90;;;;;;5104329;28;20265;-70
2022/12/02 10:07:16;;;;;;;41.88;13.38;;;4.10;78.10;;;;;;5073432;28;20532;-70
2022/12/02 10:09:45;;;;;;;38.72;12.00;;;4.10;78.20;;;;;;5068543;28;20057;-70
2022/12/02 10:12:12;;;;;;;43.40;14.95;;;4.10;78.10;;;;;;5084022;28;20049;-70
2022/12/02 10:14:40;;;;;;;44.07;13.50;;;4.10;78.20;;;;;;5081949;28;20057;-70
2022/12/02 10:17:15;;;;;;;46.08;13.52;;;4.10;78.00;;;;;;5053114;28;20267;-69
2022/12/02 10:19:43;;;;;;;47.55;13.95;;;4.10;78.10;;;;;;5047465;28;20050;-70
2022/12/02 10:22:15;;;;;;;46.50;13.68;;;4.10;78.50;;;;;;5069629;28;20106;-69
2022/12/02 10:24:43;;;;;;;45.72;15.27;;;4.20;78.40;;;;;;5071020;28;20051;-69
2022/12/02 10:27:23;;;;;;;47.40;13.07;;;4.10;78.50;;;;;;5067973;28;20049;-70
2022/12/02 10:29:51;;;;;;;46.35;13.75;;;4.10;78.10;;;;;;5082459;28;20337;-70
2022/12/02 10:32:21;;;;;;;46.53;14.07;;;4.10;78.00;;;;;;5076737;28;20059;-70
2022/12/02 10:35:03;;;;;;;43.28;14.00;;;4.10;78.10;;;;;;5076607;28;20056;-70
2022/12/02 10:38:13;;;;;;;46.10;13.63;;;4.10;78.10;;;;;;5061139;28;20517;-69
2022/12/02 10:40:40;;;;;;;35.87;10.77;;;4.10;77.80;;;;;;4981459;28;20059;-70
2022/12/02 10:43:11;;;;;;;37.72;10.75;;;4.10;77.70;;;;;;4977507;28;20461;-70
2022/12/02 10:45:39;;;;;;;40.13;12.40;;;4.10;77.70;;;;;;4984823;28;20535;-71
2022/12/02 10:48:16;;;;;;;41.80;12.05;;;4.00;77.70;;;;;;4969807;28;20238;-69
2022/12/02 10:50:43;;;;;;;39.28;11.70;;;4.00;77.80;;;;;;4985834;28;20047;-70
2022/12/02 10:53:14;;;;;;;35.00;12.17;;;4.00;77.80;;;;;;4968135;28;20059;-69
2022/12/02 10:55:42;;;;;;;33.50;10.82;;;4.00;77.70;;;;;;4969377;28;20256;-69
2022/12/02 10:58:15;;;;;;;38.03;12.15;;;4.00;77.80;;;;;;4968307;28;20055;-70
2022/12/02 11:00:42;;;;;;;35.53;11.30;;;3.90;77.80;;;;;;4981953;28;20086;-69
2022/12/02 11:03:09;;;;;;;31.42;10.45;;;4.00;78.00;;;;;;4968874;28;20552;-70
2022/12/02 11:05:37;;;;;;;36.10;11.73;;;3.90;77.90;;;;;;4963284;28;20050;-70
2022/12/02 11:08:06;;;;;;;36.08;10.07;;;3.90;77.80;;;;;;4968034;28;20255;-70
2022/12/02 11:10:38;;;;;;;36.55;11.38;;;3.90;77.70;;;;;;4966449;28;20118;-70
2022/12/02 11:13:29;;;;;;;31.17;10.77;;;3.90;77.80;;;;;;4928097;28;20055;-69
2022/12/02 11:16:16;;;;;;;35.75;10.80;;;3.90;78.00;;;;;;4944627;28;20050;-70
2022/12/02 11:18:51;;;;;;;32.27;10.50;;;3.90;78.10;;;;;;4951008;28;20055;-70
2022/12/02 11:21:37;;;;;;;39.10;11.88;;;3.90;78.10;;;;;;4956739;28;20283;-70
2022/12/02 11:24:35;;;;;;;35.50;11.88;;;3.90;77.90;;;;;;4954183;28;20210;-70
2022/12/02 11:27:11;;;;;;;36.15;12.45;;;3.90;77.90;;;;;;4965968;28;20051;-69
2022/12/02 11:29:42;;;;;;;37.80;12.38;;;3.90;78.00;;;;;;4950332;28;20061;-69
2022/12/02 11:32:18;;;;;;;38.70;13.27;;;3.90;78.20;;;;;;4967982;28;20052;-69
2022/12/02 11:34:48;;;;;;;40.55;12.57;;;3.90;78.20;;;;;;4949420;28;20290;-70
2022/12/02 11:37:40;;;;;;;44.25;14.57;;;3.90;78.00;;;;;;4963129;28;20047;-69
2022/12/02 11:40:40;;;;;;;44.65;14.10;;;3.90;78.20;;;;;;4957651;28;20059;-69
2022/12/02 11:43:45;;;;;;;39.08;13.05;;;3.90;78.20;;;;;;4950191;28;20049;-69
2022/12/02 11:46:15;;;;;;;43.53;14.97;;;3.90;78.20;;;;;;4963242;28;20051;-69
2022/12/02 11:48:45;;;;;;;45.88;14.40;;;4.00;78.20;;;;;;4957352;28;20263;-69
2022/12/02 11:51:30;;;;;;;39.50;12.15;;;4.00;78.70;;;;;;4973203;28;20059;-69
2022/12/02 11:53:58;;;;;;;41.72;13.57;;;3.90;78.10;;;;;;4966160;28;20048;-69
2022/12/02 11:56:28;;;;;;;48.25;15.82;;;3.90;78.10;;;;;;4979697;28;20134;-69
2022/12/02 11:58:56;;;;;;;43.93;13.33;;;3.90;78.20;;;;;;4961538;28;20051;-69
2022/12/02 12:01:24;;;;;;;44.10;15.10;;;3.90;78.00;;;;;;4953751;28;20270;-69
2022/12/02 12:03:53;;;;;;;43.35;14.30;;;3.90;78.30;;;;;;4961623;28;20150;-70
2022/12/02 12:06:21;;;;;;;50.55;17.67;;;3.90;78.30;;;;;;4980322;28;20640;-70
2022/12/02 12:08:50;;;;;;;44.45;15.73;;;3.90;78.30;;;;;;4973253;28;20058;-70
2022/12/02 12:11:21;;;;;;;51.20;16.23;;;4.00;78.60;;;;;;4984111;28;20126;-70
2022/12/02 12:14:03;;;;;;;46.53;16.10;;;4.00;78.40;;;;;;4950314;28;20255;-70
2022/12/02 12:16:33;;;;;;;45.38;15.40;;;4.00;78.50;;;;;;4968189;28;20530;-70
2022/12/02 12:19:01;;;;;;;50.35;15.48;;;4.00;78.30;;;;;;4966664;28;20058;-69
2022/12/02 12:21:44;;;;;;;52.20;17.27;;;4.00;78.20;;;;;;4948832;28;20059;-69
2022/12/02 12:24:32;;;;;;;45.53;16.70;;;4.00;78.40;;;;;;4951483;28;20158;-70
2022/12/02 12:27:11;;;;;;;44.28;15.98;;;4.10;78.60;;;;;;4966969;28;20287;-69
2022/12/02 12:29:40;;;;;;;48.10;15.63;;;4.10;78.40;;;;;;4968673;28;20054;-69
2022/12/02 12:32:10;;;;;;;51.58;17.10;;;4.10;78.30;;;;;;4965824;28;20056;-70
2022/12/02 12:34:37;;;;;;;51.55;16.13;;;4.10;78.50;;;;;;4966505;28;20059;-70
2022/12/02 12:37:04;;;;;;;52.17;17.53;;;4.10;78.40;;;;;;4966154;28;20118;-70
2022/12/02 12:39:32;;;;;;;51.60;17.13;;;4.10;78.30;;;;;;4947927;28;20382;-70
2022/12/02 12:41:59;;;;;;;50.63;17.67;;;4.10;78.30;;;;;;4947516;28;20082;-70
2022/12/02 12:44:26;;;;;;;48.28;16.75;;;4.10;78.20;;;;;;4950110;28;20875;-70
2022/12/02 12:46:53;;;;;;;48.28;15.77;;;4.10;78.20;;;;;;4950565;28;20458;-70
2022/12/02 12:49:21;;;;;;;50.30;17.43;;;4.10;78.40;;;;;;4980283;28;20066;-70
2022/12/02 12:51:48;;;;;;;47.58;17.13;;;4.20;78.70;;;;;;4967516;28;20263;-70
2022/12/02 12:54:17;;;;;;;56.97;18.35;;;4.20;78.70;;;;;;4974877;28;20044;-70
2022/12/02 12:56:44;;;;;;;48.72;17.40;;;4.20;78.30;;;;;;4958536;28;20086;-70